Record high temperature 99.5°F Record low temperature 20.5°F Record high gust 27.6 mph Record high average 23.0 mph Record daily rain 4.11 in. Record low windchill 9.7°F Record high barometer 30.755 in. Record low barometer 29.471 in.
Daily high pressure 30.095 in. Daily low pressure 30.031 in. Daily low windchill 37.4°F Daily high heat index 62.4°F Daily high gust speed 3.5 mph WSW Daily high average speed 2.3 mph SW



Weather report/warning/Metars

NORTH WEST ALABAMA REGIONAL, AL, United States (KMSL) 34-45N 087-36W 164M
Oct 27, 2019 - 04:53 PM EDT / 2019.10.27 2053 UTC
Wind: from the S (170 degrees) at 3 MPH (3 KT):0
Visibility: 10 mile(s):0
Sky conditions: overcast
Temperature: 64.0 F (17.8 C)
Dew Point: 53.1 F (11.7 C)
Relative Humidity: 67%
Pressure (altimeter): 30.05 in. Hg (1017 hPa)
Pressure tendency: 0.00 inches (0.0 hPa) higher than three hours ago
ob: KMSL 272053Z AUTO 17003KT 10SM OVC025 18/12 A3005 RMK AO2 SLP172 T01780117 53000
cycle: 21



The data is logged at two minute intervals, but there is data recorded every minute.

Use the RELOAD facility on your browser to retrieve the latest data.

Click here for a daily update of the averages/extremes to date for the month
Created by "Weather Display" software version 10.37S at this start time/date 2:52:49 PM 10/27/2019